Portada
METAR-TAF:

METAR-TAF

Aeropuertos :

Aeropuerto de Oporto-Francisco Sá Carneiro

Oporto, Portugal

latitud: 41-14N, longitud: 008-41W, altitud: 69 m

Observación

El informe se hizo hace 34 minutos, a las 12:00 UTC
Viento 7 kt del este-sureste, variando entre este-noreste y sureste
Temperatura 20°C
Humedad 64%
Presión 1015 hPa
Visibilidad 10 km o más
sin nubes por debajo de 1500 m y sin presencia de cumulonimbus.

METAR: LPPR 151200Z 11007KT 070V140 CAVOK 20/13 Q1015

Hora: 12:34 (12:34 UTC)

Pronóstico

El informe se hizo hace 1 hora y 34 minutos, a las 11:00 UTC
Pronóstico válido del 15 a las 12 UTC al 16 a las 12 UTC
Viento 10 kt del este-sureste
Visibilidad 10 km o más
sin nubes por debajo de 1500 m y sin presencia de cumulonimbus.
Temporalmente
del 15 a las 12 UTC al 15 a las 18 UTC
Viento 3 kt con dirección variable
Visibilidad 10 km o más
Nubes dispersas a una altura de 3000 ft

TAF: LPPR 151100Z 1512/1612 11010KT CAVOK TEMPO 1512/1518 VRB03KT 9999 SCT030

Observaciones y pronósticos meteorológicos de más de 4000 aeropuertos (mensajes METAR y TAF).

Los puntos amarillos y rojos representan las estaciones disponibles.

Ponga el ratón en el punto deseado para ver el nombre de la estación.

Haga clic para ver las observaciones y los pronósticos meteorológicos.

Para cambiar el mapa : haga clic en los botones verdes con una cruz de color negro para hacer un zoom, en el botón verde con un guión para alejar o en las flechas verdes para mapas adyacentes.


METAR-TAF: